Time;durP1;ratioP1;P1;durP2;ratioP2;P2;SDS_P1;SDS_P2;PMS_P1;PMS_P2;Temp;Humidity;BMP_temperature;BMP_pressure;BME280_temperature;BME280_humidity;BME280_pressure;Samples;Min_cycle;Max_cycle;Signal;HPM_P1;HPM_P2
2022/12/05 00:00:34;;;;;;;11.77;6.40;;;;;;;5.54;67.99;96991.84;4847987;28;20778;-75
2022/12/05 00:03:04;;;;;;;15.82;6.47;;;;;;;5.62;67.97;96994.13;4852327;29;20274;-76
2022/12/05 00:05:29;;;;;;;13.23;6.32;;;;;;;5.55;67.33;96993.41;4872553;28;20211;-76
2022/12/05 00:07:54;;;;;;;13.23;6.88;;;;;;;5.54;67.97;96986.69;4874437;28;20662;-76
2022/12/05 00:10:20;;;;;;;9.60;4.68;;;;;;;5.54;67.35;96981.53;4869589;28;20203;-76
2022/12/05 00:12:45;;;;;;;11.73;6.47;;;;;;;5.55;67.66;96986.47;4871873;28;20208;-76
2022/12/05 00:15:11;;;;;;;16.38;6.47;;;;;;;5.56;67.28;96989.84;4869049;28;20374;-75
2022/12/05 00:17:39;;;;;;;13.07;6.03;;;;;;;5.54;67.19;96987.47;4869054;28;20708;-75
2022/12/05 00:20:05;;;;;;;15.07;7.38;;;;;;;5.55;67.56;96994.22;4871638;28;20293;-75
2022/12/05 00:22:31;;;;;;;16.17;6.93;;;;;;;5.54;67.52;96989.25;4873996;28;20204;-76
2022/12/05 00:24:56;;;;;;;12.73;6.55;;;;;;;5.59;67.60;96992.78;4872933;28;20204;-76
2022/12/05 00:27:21;;;;;;;19.52;8.00;;;;;;;5.59;67.36;96987.59;4871162;28;20169;-76
2022/12/05 00:29:46;;;;;;;16.20;7.70;;;;;;;5.65;67.62;96983.34;4870367;28;20215;-76
2022/12/05 00:32:12;;;;;;;16.40;8.18;;;;;;;5.63;67.21;96986.16;4850677;29;20429;-76
2022/12/05 00:34:37;;;;;;;15.82;7.30;;;;;;;5.65;67.48;96992.91;4872869;28;20283;-76
2022/12/05 00:37:03;;;;;;;15.32;6.55;;;;;;;5.62;67.68;96991.53;4864669;28;20162;-75
2022/12/05 00:39:28;;;;;;;17.05;7.72;;;;;;;5.62;66.79;96991.53;4871936;28;20672;-75
2022/12/05 00:41:53;;;;;;;21.25;6.90;;;;;;;5.54;66.90;96997.00;4851685;28;20181;-76
2022/12/05 00:44:18;;;;;;;14.70;6.57;;;;;;;5.55;67.55;96988.25;4864253;28;20200;-76
2022/12/05 00:46:44;;;;;;;15.50;6.40;;;;;;;5.54;67.87;96992.63;4870390;28;20223;-75
2022/12/05 00:49:10;;;;;;;13.88;6.70;;;;;;;5.62;67.42;96992.34;4849056;29;20185;-76
2022/12/05 00:51:38;;;;;;;13.25;6.47;;;;;;;5.72;67.31;96993.59;4875151;28;20180;-76
2022/12/05 00:54:12;;;;;;;13.15;6.72;;;;;;;5.75;67.34;96995.75;4879752;28;20289;-75
2022/12/05 00:56:37;;;;;;;14.23;6.97;;;;;;;5.70;67.08;96990.47;4874293;28;20251;-76
2022/12/05 00:59:04;;;;;;;15.27;6.47;;;;;;;5.63;67.09;96990.53;4864486;28;20373;-76
2022/12/05 01:01:31;;;;;;;12.70;5.63;;;;;;;5.65;67.07;96993.69;4879317;28;20731;-75
2022/12/05 01:03:58;;;;;;;11.52;5.85;;;;;;;5.60;66.93;97001.28;4861440;28;20243;-76
2022/12/05 01:06:25;;;;;;;12.88;6.18;;;;;;;5.61;67.22;96997.72;4878143;28;20215;-76
2022/12/05 01:08:52;;;;;;;12.45;6.07;;;;;;;5.62;67.25;96994.13;4880795;28;20218;-76
2022/12/05 01:11:18;;;;;;;10.95;5.53;;;;;;;5.65;67.53;97004.03;4865234;29;20202;-76
2022/12/05 01:13:44;;;;;;;11.63;6.13;;;;;;;5.69;66.73;97004.38;4859425;28;20272;-76
2022/12/05 01:16:33;;;;;;;13.70;6.90;;;;;;;5.79;67.23;97005.47;4855627;29;20275;-76
2022/12/05 01:19:01;;;;;;;11.75;5.70;;;;;;;5.71;67.56;97008.31;4843085;29;20299;-76
2022/12/05 01:21:26;;;;;;;13.98;6.80;;;;;;;5.69;67.34;97006.97;4850948;29;20308;-75
2022/12/05 01:23:52;;;;;;;12.43;5.65;;;;;;;5.61;67.02;97013.22;4869629;28;20257;-76
2022/12/05 01:26:19;;;;;;;7.88;4.90;;;;;;;5.68;67.19;97018.31;4874170;28;20507;-75
2022/12/05 01:28:45;;;;;;;11.20;5.80;;;;;;;5.68;66.54;97023.47;4860038;28;20212;-75
2022/12/05 01:31:21;;;;;;;10.75;5.40;;;;;;;5.77;66.98;97027.34;4875050;28;20195;-76
2022/12/05 01:33:47;;;;;;;9.93;4.75;;;;;;;5.60;67.04;97032.28;4851438;29;20252;-75
2022/12/05 01:36:12;;;;;;;9.50;4.90;;;;;;;5.64;67.02;97030.88;4854565;29;20197;-76
2022/12/05 01:38:39;;;;;;;9.20;4.75;;;;;;;5.63;67.29;97027.47;4876808;28;20662;-76
2022/12/05 01:41:06;;;;;;;9.07;4.97;;;;;;;5.61;67.09;97026.13;4859541;28;20191;-76
2022/12/05 01:43:31;;;;;;;11.45;6.50;;;;;;;5.55;67.50;97021.81;4866016;28;20616;-76
2022/12/05 01:45:57;;;;;;;9.15;4.72;;;;;;;5.53;67.58;97011.69;4870177;28;20283;-76
2022/12/05 01:48:34;;;;;;;10.40;5.13;;;;;;;5.66;66.99;97017.75;4864519;28;20169;-76
2022/12/05 01:50:59;;;;;;;11.68;5.40;;;;;;;5.55;67.33;97022.63;4876293;28;20275;-76
2022/12/05 01:53:25;;;;;;;9.27;4.47;;;;;;;5.56;67.54;97023.41;4871922;28;20802;-75
2022/12/05 01:55:52;;;;;;;9.70;5.22;;;;;;;5.56;67.16;97026.00;4869936;28;20636;-76
2022/12/05 01:58:18;;;;;;;10.88;4.93;;;;;;;5.57;67.22;97037.88;4878316;28;20565;-76
2022/12/05 02:00:44;;;;;;;10.15;5.13;;;;;;;5.52;67.37;97035.16;4856937;29;20774;-76
2022/12/05 02:03:18;;;;;;;8.90;4.60;;;;;;;5.60;67.14;97034.88;4874208;28;20377;-75
2022/12/05 02:05:47;;;;;;;13.80;5.35;;;;;;;5.57;67.49;97033.53;4874236;28;20285;-76
2022/12/05 02:08:12;;;;;;;15.75;5.43;;;;;;;5.50;67.25;97017.31;4867485;28;20285;-75
2022/12/05 02:10:40;;;;;;;11.10;5.47;;;;;;;5.56;67.87;97028.56;4883830;28;20141;-75
2022/12/05 02:13:22;;;;;;;9.57;5.22;;;;;;;5.64;67.50;97017.97;4877074;28;20191;-76
2022/12/05 02:16:03;;;;;;;10.95;5.80;;;;;;;5.65;66.91;97011.00;4884536;28;20715;-76
2022/12/05 02:18:45;;;;;;;10.95;5.20;;;;;;;5.72;67.16;97020.22;4877481;28;20262;-75
2022/12/05 02:21:35;;;;;;;11.88;5.85;;;;;;;5.76;67.71;97010.28;4876117;28;20651;-76
2022/12/05 02:24:03;;;;;;;9.20;4.50;;;;;;;5.56;67.33;97003.53;4873022;28;20590;-75
2022/12/05 02:26:41;;;;;;;8.15;3.88;;;;;;;5.71;67.25;97021.25;4859116;29;20629;-76
2022/12/05 02:29:24;;;;;;;12.48;5.75;;;;;;;5.71;67.33;97010.91;4868335;28;20294;-76
2022/12/05 02:31:59;;;;;;;12.60;5.78;;;;;;;5.58;67.25;97003.31;4852880;29;20252;-75
2022/12/05 02:34:32;;;;;;;13.40;5.18;;;;;;;5.64;67.32;97007.63;4873635;28;20693;-76
2022/12/05 02:37:08;;;;;;;15.10;6.03;;;;;;;5.67;67.66;97009.75;4871415;28;20666;-76
2022/12/05 02:40:01;;;;;;;38.50;8.57;;;;;;;5.62;67.42;97004.44;4856599;29;20203;-76
2022/12/05 02:42:31;;;;;;;14.98;6.00;;;;;;;5.57;67.70;97006.88;4858670;28;20243;-76
2022/12/05 02:45:06;;;;;;;13.55;6.22;;;;;;;5.60;68.02;97011.63;4870109;28;20635;-76
2022/12/05 02:47:34;;;;;;;14.65;6.13;;;;;;;5.61;67.70;97013.22;4858811;29;20024;-75
2022/12/05 02:50:00;;;;;;;35.67;8.38;;;;;;;5.52;67.44;97023.06;4857432;29;20126;-75
2022/12/05 02:52:26;;;;;;;14.18;5.57;;;;;;;5.55;66.83;97027.78;4873653;28;20803;-74
2022/12/05 02:54:53;;;;;;;12.43;5.65;;;;;;;5.60;67.78;97042.63;4859752;29;20019;-74
2022/12/05 02:57:19;;;;;;;10.00;4.68;;;;;;;5.60;67.79;97042.63;4864023;29;20054;-75
2022/12/05 02:59:45;;;;;;;9.95;5.35;;;;;;;5.56;67.64;97044.06;4871699;28;20746;-75
2022/12/05 03:02:23;;;;;;;12.52;5.75;;;;;;;5.75;66.90;97050.78;4887616;28;20040;-75
2022/12/05 03:04:49;;;;;;;11.68;5.00;;;;;;;5.58;67.39;97054.97;4889553;28;20058;-75
2022/12/05 03:07:16;;;;;;;11.95;5.43;;;;;;;5.68;67.80;97055.25;4889825;28;20847;-74
2022/12/05 03:09:50;;;;;;;9.70;4.13;;;;;;;5.81;66.75;97055.13;4887518;28;20053;-75
2022/12/05 03:12:26;;;;;;;11.13;4.97;;;;;;;5.75;67.29;97066.28;4889770;28;20038;-75
2022/12/05 03:15:02;;;;;;;17.52;5.13;;;;;;;5.69;67.49;97064.59;4883579;28;20066;-75
2022/12/05 03:17:32;;;;;;;8.40;4.28;;;;;;;5.67;67.35;97064.00;4883316;28;20147;-75
2022/12/05 03:20:09;;;;;;;6.80;3.90;;;;;;;5.52;67.39;97061.78;4873745;28;20994;-75
2022/12/05 03:22:52;;;;;;;8.32;4.65;;;;;;;5.72;67.74;97063.34;4872485;28;20713;-75
2022/12/05 03:25:21;;;;;;;7.95;3.78;;;;;;;5.62;67.43;97050.94;4887872;28;20227;-75
2022/12/05 03:27:59;;;;;;;7.45;3.97;;;;;;;5.67;67.35;97055.47;4881456;28;20039;-75
2022/12/05 03:30:25;;;;;;;8.27;3.38;;;;;;;5.61;67.89;97051.97;4875532;28;20073;-75
2022/12/05 03:32:59;;;;;;;9.00;4.10;;;;;;;5.73;66.96;97064.94;4875930;28;20066;-74
2022/12/05 03:35:38;;;;;;;12.48;5.35;;;;;;;5.85;66.33;97065.03;4867527;29;20685;-74
2022/12/05 03:38:10;;;;;;;7.95;3.65;;;;;;;5.77;67.35;97069.44;4843664;28;20143;-75
2022/12/05 03:40:50;;;;;;;11.57;3.90;;;;;;;5.83;67.26;97072.97;4881947;28;20035;-74
2022/12/05 03:43:25;;;;;;;8.40;4.07;;;;;;;5.82;66.99;97073.97;4859475;29;20024;-74
2022/12/05 03:45:57;;;;;;;;;;;;;;;6.05;66.83;97075.94;4856008;28;20028;-74
2022/12/05 03:48:29;;;;;;;8.13;3.65;;;;;;;5.84;66.85;97084.09;4879528;28;19917;-75
2022/12/05 03:50:55;;;;;;;8.45;3.80;;;;;;;5.71;67.25;97091.00;4862806;29;20193;-75
2022/12/05 03:53:30;;;;;;;11.80;3.58;;;;;;;5.80;67.37;97092.28;4879380;28;20044;-75
2022/12/05 03:56:10;;;;;;;6.50;3.42;;;;;;;5.86;66.94;97084.66;4857458;29;20031;-75
2022/12/05 03:58:43;;;;;;;7.13;3.45;;;;;;;5.87;67.18;97088.84;4866760;28;20066;-75
2022/12/05 04:01:10;;;;;;;5.55;3.03;;;;;;;5.78;67.23;97080.59;4885359;28;20028;-75
2022/12/05 04:03:40;;;;;;;7.07;3.30;;;;;;;5.81;67.45;97080.94;4873018;28;20049;-74
2022/12/05 04:06:18;;;;;;;7.28;3.90;;;;;;;5.85;67.78;97081.31;4888789;28;20033;-75
2022/12/05 04:08:48;;;;;;;8.60;3.92;;;;;;;5.87;67.29;97083.66;4889063;28;20023;-76
2022/12/05 04:11:18;;;;;;;9.52;4.20;;;;;;;5.87;66.84;97088.84;4887726;28;20244;-75
2022/12/05 04:13:48;;;;;;;8.02;3.67;;;;;;;5.86;67.33;97088.06;4880678;28;20361;-75
2022/12/05 04:17:03;;;;;;;6.80;3.53;;;;;;;5.96;67.33;97098.72;4888955;28;20282;-76
2022/12/05 04:22:26;;;;;;;6.70;3.67;;;;;;;5.92;67.39;97101.91;4815461;29;20137;-75
2022/12/05 04:25:39;;;;;;;6.95;3.83;;;;;;;5.92;67.43;97094.16;4817133;29;20687;-75
2022/12/05 04:27:53;;;;;;;7.72;3.85;;;;;;;6.01;67.48;97092.88;4796961;29;20772;-75
2022/12/05 04:30:21;;;;;;;9.57;3.95;;;;;;;5.90;67.16;97084.03;4806778;29;20043;-75
2022/12/05 04:33:07;;;;;;;5.88;3.10;;;;;;;6.08;67.21;97085.81;4793947;29;20048;-75
2022/12/05 04:36:00;;;;;;;6.55;3.20;;;;;;;6.08;67.24;97079.88;4790895;29;20726;-75
2022/12/05 04:38:31;;;;;;;7.63;4.13;;;;;;;5.97;67.42;97084.75;4786190;29;20040;-75
2022/12/05 04:40:59;;;;;;;7.25;3.67;;;;;;;5.92;67.76;97081.22;4806035;29;20115;-75
2022/12/05 04:43:26;;;;;;;7.18;3.13;;;;;;;5.90;67.69;97083.25;4788327;29;20799;-76
2022/12/05 04:45:52;;;;;;;8.00;3.65;;;;;;;5.86;67.82;97077.72;4795838;29;20030;-76
2022/12/05 04:48:18;;;;;;;6.30;3.50;;;;;;;5.87;67.74;97078.50;4805415;29;20896;-75
2022/12/05 04:50:45;;;;;;;5.07;2.70;;;;;;;5.97;67.35;97081.41;4797581;29;20036;-75
2022/12/05 04:53:11;;;;;;;8.98;3.63;;;;;;;5.95;67.94;97089.34;4841203;29;20052;-75
2022/12/05 04:55:40;;;;;;;7.45;3.30;;;;;;;6.00;67.64;97083.56;4866721;29;20219;-75
2022/12/05 04:58:20;;;;;;;6.15;3.53;;;;;;;6.09;67.44;97090.00;4877674;28;20114;-75
2022/12/05 05:00:58;;;;;;;7.80;2.65;;;;;;;6.07;67.50;97091.25;4882682;28;20027;-75
2022/12/05 05:03:27;;;;;;;6.75;3.33;;;;;;;6.03;67.59;97088.28;4865044;28;20118;-75
2022/12/05 05:05:54;;;;;;;6.55;3.08;;;;;;;6.01;68.01;97087.69;4883624;28;20032;-76
2022/12/05 05:08:27;;;;;;;4.55;2.90;;;;;;;6.05;67.70;97086.28;4867684;29;20232;-75
2022/12/05 05:11:11;;;;;;;5.50;3.15;;;;;;;6.11;67.38;97087.19;4880664;28;20050;-75
2022/12/05 05:13:36;;;;;;;8.00;3.40;;;;;;;5.92;67.94;97089.75;4863855;29;20035;-75
2022/12/05 05:16:02;;;;;;;6.82;3.30;;;;;;;5.96;67.62;97092.72;4863088;29;20712;-76
2022/12/05 05:18:27;;;;;;;7.03;3.00;;;;;;;5.98;68.18;97096.69;4852286;29;20135;-75
2022/12/05 05:20:53;;;;;;;5.82;2.95;;;;;;;5.96;67.74;97096.13;4866457;29;20101;-75
2022/12/05 05:23:18;;;;;;;6.82;3.38;;;;;;;5.98;67.75;97093.31;4881259;28;20139;-75
2022/12/05 05:25:43;;;;;;;23.30;5.07;;;;;;;5.91;67.30;97089.97;4866315;29;20731;-75
2022/12/05 05:28:09;;;;;;;19.40;4.75;;;;;;;5.81;67.59;97096.44;4885614;28;20569;-75
2022/12/05 05:30:34;;;;;;;6.43;2.83;;;;;;;5.87;67.48;97099.97;4889704;28;20042;-75
2022/12/05 05:32:59;;;;;;;6.25;2.63;;;;;;;5.88;67.94;97105.91;4891206;28;20031;-75
2022/12/05 05:35:25;;;;;;;8.20;2.90;;;;;;;5.87;67.77;97109.50;4885828;28;20061;-75
2022/12/05 05:37:50;;;;;;;10.90;2.95;;;;;;;5.88;67.51;97113.66;4888233;28;20061;-75
2022/12/05 05:40:16;;;;;;;16.77;5.10;;;;;;;5.85;68.15;97122.66;4871059;28;20133;-75
2022/12/05 05:42:43;;;;;;;5.40;3.03;;;;;;;5.97;67.67;97135.66;4886800;28;20023;-76
2022/12/05 05:45:09;;;;;;;5.03;2.67;;;;;;;5.98;67.50;97134.66;4881180;28;20755;-75
2022/12/05 05:47:35;;;;;;;5.72;2.90;;;;;;;5.97;67.50;97131.28;4853109;29;20031;-75
2022/12/05 05:50:00;;;;;;;7.68;3.42;;;;;;;5.97;67.59;97130.50;4891120;28;20043;-75
2022/12/05 05:52:25;;;;;;;6.65;3.55;;;;;;;5.95;67.52;97128.09;4875634;29;20039;-75
2022/12/05 05:54:51;;;;;;;8.30;3.30;;;;;;;5.94;67.90;97120.56;4891004;28;20026;-74
2022/12/05 05:57:16;;;;;;;6.85;3.78;;;;;;;5.98;68.15;97132.06;4875563;28;20028;-75
2022/12/05 05:59:42;;;;;;;6.28;3.28;;;;;;;6.00;67.27;97130.84;4864553;29;20644;-75
2022/12/05 06:02:07;;;;;;;7.45;3.60;;;;;;;5.99;67.79;97134.44;4879816;28;20031;-75
2022/12/05 06:04:34;;;;;;;6.45;3.22;;;;;;;6.06;67.59;97142.13;4885512;28;20039;-76
2022/12/05 06:06:59;;;;;;;6.57;2.97;;;;;;;6.02;67.53;97143.56;4860233;29;20376;-75
2022/12/05 06:09:25;;;;;;;6.05;3.30;;;;;;;6.04;67.81;97145.94;4862502;28;20276;-75
2022/12/05 06:11:50;;;;;;;6.72;3.40;;;;;;;6.03;67.40;97139.19;4861078;29;20114;-75
2022/12/05 06:14:15;;;;;;;7.32;3.67;;;;;;;6.07;67.52;97148.09;4862739;29;20031;-75
2022/12/05 06:16:41;;;;;;;6.10;2.90;;;;;;;6.08;67.23;97150.44;4866594;29;20035;-75
2022/12/05 06:19:06;;;;;;;5.25;2.80;;;;;;;6.08;67.59;97147.06;4861807;29;20101;-75
2022/12/05 06:21:34;;;;;;;8.07;3.88;;;;;;;6.07;67.71;97148.09;4865657;29;20110;-75
2022/12/05 06:24:00;;;;;;;6.63;3.72;;;;;;;6.10;67.59;97153.63;4878754;28;20380;-75
2022/12/05 06:26:25;;;;;;;7.15;3.05;;;;;;;6.09;67.37;97157.22;4876635;28;20051;-75
2022/12/05 06:28:50;;;;;;;7.78;3.22;;;;;;;6.11;67.29;97164.75;4864680;28;20456;-75
2022/12/05 06:31:19;;;;;;;7.55;3.70;;;;;;;6.15;67.03;97158.94;4867253;28;20362;-75
2022/12/05 06:33:44;;;;;;;5.88;3.22;;;;;;;6.12;67.42;97164.53;4863501;29;20019;-75
2022/12/05 06:36:13;;;;;;;6.53;3.25;;;;;;;6.14;67.58;97162.50;4877311;28;20781;-75
2022/12/05 06:38:38;;;;;;;6.95;3.67;;;;;;;6.11;67.60;97162.16;4858941;28;20101;-75
2022/12/05 06:41:05;;;;;;;5.90;3.15;;;;;;;6.09;67.04;97170.13;4876827;28;20023;-75
2022/12/05 06:43:30;;;;;;;5.95;2.85;;;;;;;6.08;67.90;97165.94;4855348;29;20031;-75
2022/12/05 06:45:56;;;;;;;7.75;3.60;;;;;;;6.09;67.68;97169.34;4874355;28;20610;-75
2022/12/05 06:48:22;;;;;;;8.75;4.53;;;;;;;6.14;67.97;97172.84;4875264;28;20054;-74
2022/12/05 06:50:51;;;;;;;7.07;4.25;;;;;;;6.26;67.15;97172.16;4881070;28;20027;-75
2022/12/05 06:53:18;;;;;;;8.25;4.50;;;;;;;6.24;66.83;97177.53;4875732;28;20035;-75
2022/12/05 06:55:43;;;;;;;8.25;4.15;;;;;;;6.22;67.47;97182.13;4864011;29;20023;-75
2022/12/05 06:58:09;;;;;;;10.50;4.78;;;;;;;6.28;66.93;97180.47;4883423;28;20490;-75
2022/12/05 07:03:18;;;;;;;10.07;5.60;;;;;;;6.35;66.82;97183.78;4871539;29;20118;-75
2022/12/05 07:05:43;;;;;;;11.23;5.55;;;;;;;6.30;67.47;97192.16;4888397;28;20119;-75
2022/12/05 07:08:09;;;;;;;12.88;5.85;;;;;;;6.39;67.40;97190.06;4885628;28;20881;-75
2022/12/05 07:10:34;;;;;;;16.92;7.63;;;;;;;6.40;67.36;97185.72;4871463;28;20603;-75
2022/12/05 07:12:59;;;;;;;12.48;5.88;;;;;;;6.51;66.64;97192.72;4886357;28;20070;-75
2022/12/05 07:15:25;;;;;;;14.18;6.03;;;;;;;6.48;67.12;97198.34;4870206;29;20031;-75
2022/12/05 07:17:50;;;;;;;16.88;7.60;;;;;;;6.41;67.19;97198.44;4878051;28;20031;-75
2022/12/05 07:20:16;;;;;;;13.60;6.75;;;;;;;6.49;66.74;97198.13;4889123;28;20333;-75
2022/12/05 07:22:42;;;;;;;17.95;7.45;;;;;;;6.44;66.84;97200.56;4884050;28;20031;-75
2022/12/05 07:25:08;;;;;;;27.45;8.02;;;;;;;6.41;68.06;97208.78;4889184;28;20936;-75
2022/12/05 07:27:33;;;;;;;18.20;8.82;;;;;;;6.45;67.79;97202.16;4864136;28;20035;-75
2022/12/05 07:29:58;;;;;;;20.65;8.35;;;;;;;6.51;67.88;97209.06;4875035;28;20047;-74
2022/12/05 07:32:24;;;;;;;16.63;7.57;;;;;;;6.57;67.35;97209.97;4865578;29;20028;-74
2022/12/05 07:34:49;;;;;;;16.52;7.95;;;;;;;6.63;66.92;97218.66;4879595;28;20784;-74
2022/12/05 07:37:15;;;;;;;18.98;9.07;;;;;;;6.61;67.22;97208.53;4862494;29;20304;-75
2022/12/05 07:39:40;;;;;;;18.40;7.97;;;;;;;6.59;67.67;97209.75;4874153;28;20769;-74
2022/12/05 07:42:05;;;;;;;22.23;8.27;;;;;;;6.62;67.82;97215.28;4872965;28;20682;-75
2022/12/05 07:44:31;;;;;;;18.02;8.65;;;;;;;6.67;67.43;97212.84;4868947;28;21078;-74
2022/12/05 07:46:57;;;;;;;24.10;9.00;;;;;;;6.72;67.51;97209.59;4855806;28;21029;-75
2022/12/05 07:49:24;;;;;;;23.58;8.35;;;;;;;6.77;66.97;97217.50;4867365;28;20035;-75
2022/12/05 07:51:49;;;;;;;17.75;7.22;;;;;;;6.81;67.55;97207.50;4854148;29;20396;-74
2022/12/05 07:54:14;;;;;;;26.08;9.07;;;;;;;6.74;68.18;97221.31;4846551;29;20055;-75
2022/12/05 07:56:40;;;;;;;16.40;8.40;;;;;;;6.81;68.37;97221.22;4874346;28;20066;-75
2022/12/05 07:59:05;;;;;;;25.77;8.80;;;;;;;6.82;67.88;97220.22;4865194;29;20043;-75
2022/12/05 08:01:30;;;;;;;41.38;10.93;;;;;;;6.68;67.87;97223.97;4877769;28;20034;-74
2022/12/05 08:03:57;;;;;;;19.92;9.35;;;;;;;6.92;67.98;97224.88;4864030;29;20027;-75
2022/12/05 08:06:27;;;;;;;18.35;8.52;;;;;;;6.92;67.89;97233.44;4880352;28;20421;-75
2022/12/05 08:08:53;;;;;;;22.33;8.88;;;;;;;6.68;68.42;97229.16;4848070;28;20405;-75
2022/12/05 08:11:22;;;;;;;26.23;8.55;;;;;;;6.70;69.07;97230.53;4867220;28;20027;-74
2022/12/05 08:13:48;;;;;;;19.77;8.55;;;;;;;6.79;68.47;97223.25;4855684;28;20019;-74
2022/12/05 08:16:15;;;;;;;20.90;8.52;;;;;;;7.05;68.11;97229.09;4859808;28;20675;-74
2022/12/05 08:18:41;;;;;;;19.48;8.60;;;;;;;7.07;67.97;97232.25;4859842;29;20051;-75
2022/12/05 08:21:09;;;;;;;28.80;10.95;;;;;;;7.03;68.12;97231.13;4859535;29;20106;-75
2022/12/05 08:23:36;;;;;;;22.35;8.93;;;;;;;6.92;68.68;97238.63;4864769;29;20054;-75
2022/12/05 08:26:06;;;;;;;28.95;10.40;;;;;;;6.63;69.03;97236.75;4868485;28;20039;-74
2022/12/05 08:28:31;;;;;;;39.92;11.73;;;;;;;6.70;69.01;97240.88;4863074;29;20050;-74
2022/12/05 08:31:15;;;;;;;42.60;10.73;;;;;;;7.05;68.54;97247.22;4875902;28;20130;-75
2022/12/05 08:33:41;;;;;;;22.08;9.15;;;;;;;7.06;68.44;97253.94;4860454;28;20024;-74
2022/12/05 08:36:08;;;;;;;43.40;11.02;;;;;;;6.87;68.85;97254.00;4868104;29;20027;-74
2022/12/05 08:38:34;;;;;;;20.20;8.38;;;;;;;7.08;68.58;97264.91;4847651;29;20027;-75
2022/12/05 08:41:01;;;;;;;23.67;9.30;;;;;;;7.10;68.00;97266.25;4866839;29;20708;-75
2022/12/05 08:43:27;;;;;;;22.67;10.40;;;;;;;7.20;67.75;97262.34;4879457;28;20342;-74
2022/12/05 08:45:53;;;;;;;34.22;10.20;;;;;;;7.23;67.45;97273.06;4862071;29;20113;-74
2022/12/05 08:48:18;;;;;;;21.77;10.02;;;;;;;7.31;67.66;97262.38;4845024;29;20324;-75
2022/12/05 08:50:44;;;;;;;24.63;10.57;;;;;;;7.34;67.37;97268.13;4865893;29;20024;-75
2022/12/05 08:53:09;;;;;;;21.00;9.95;;;;;;;7.35;67.48;97267.94;4875503;28;20462;-75
2022/12/05 08:55:35;;;;;;;21.95;9.82;;;;;;;7.46;67.40;97281.91;4869681;28;20376;-74
2022/12/05 08:58:00;;;;;;;25.02;10.82;;;;;;;7.30;67.51;97276.34;4880149;28;20035;-74
2022/12/05 09:00:26;;;;;;;37.25;11.38;;;;;;;7.28;67.61;97288.72;4886572;28;20043;-75
2022/12/05 09:02:51;;;;;;;25.63;9.98;;;;;;;7.39;67.64;97284.59;4868047;29;20380;-75
2022/12/05 09:05:16;;;;;;;30.13;11.10;;;;;;;7.18;67.97;97290.25;4883438;28;20326;-74
2022/12/05 09:07:42;;;;;;;22.23;10.13;;;;;;;7.28;67.07;97293.91;4885972;28;20745;-75
2022/12/05 09:10:08;;;;;;;20.25;8.73;;;;;;;7.34;68.21;97301.81;4877669;28;20858;-74
2022/12/05 09:12:35;;;;;;;22.17;10.32;;;;;;;7.30;67.81;97307.44;4863456;29;20043;-74
2022/12/05 09:15:01;;;;;;;25.60;10.82;;;;;;;7.33;67.84;97301.00;4873922;28;20110;-75
2022/12/05 09:17:26;;;;;;;24.80;10.50;;;;;;;7.39;67.93;97312.31;4864938;29;20130;-75
2022/12/05 09:19:51;;;;;;;24.95;10.40;;;;;;;7.24;68.45;97310.09;4890616;28;20035;-74
2022/12/05 09:22:17;;;;;;;23.45;10.63;;;;;;;7.35;67.77;97316.31;4890836;28;20031;-75
2022/12/05 09:24:42;;;;;;;21.52;9.57;;;;;;;7.31;67.90;97311.56;4891030;28;20090;-75
2022/12/05 09:27:08;;;;;;;23.52;10.88;;;;;;;7.51;67.84;97307.94;4891090;28;20079;-75
2022/12/05 09:29:34;;;;;;;24.23;10.45;;;;;;;7.40;67.24;97311.28;4891733;28;20098;-74
2022/12/05 09:31:59;;;;;;;20.38;9.25;;;;;;;7.47;67.64;97309.38;4876576;28;20035;-75
2022/12/05 09:34:24;;;;;;;22.70;9.75;;;;;;;7.45;67.91;97317.41;4875289;28;20110;-75
2022/12/05 09:36:51;;;;;;;21.45;9.57;;;;;;;7.18;68.81;97322.13;4891205;28;20039;-75
2022/12/05 09:39:16;;;;;;;20.67;9.55;;;;;;;7.41;67.99;97316.25;4861041;28;20038;-74
2022/12/05 09:42:09;;;;;;;21.92;9.30;;;;;;;7.66;67.78;97321.28;4875301;28;20608;-74
2022/12/05 09:45:04;;;;;;;21.95;9.00;;;;;;;7.59;67.85;97327.56;4868435;28;20035;-75
2022/12/05 09:47:45;;;;;;;21.02;9.07;;;;;;;7.68;67.52;97326.25;4864182;29;20031;-75
2022/12/05 09:50:12;;;;;;;21.33;9.00;;;;;;;7.54;67.50;97328.25;4874037;28;20042;-75
2022/12/05 09:52:42;;;;;;;22.25;10.10;;;;;;;7.42;67.93;97337.75;4887292;28;20039;-76
2022/12/05 09:55:14;;;;;;;20.33;8.85;;;;;;;7.33;68.50;97337.25;4888258;28;20724;-75
2022/12/05 09:57:44;;;;;;;22.17;9.98;;;;;;;7.41;67.61;97336.97;4890461;28;20110;-75
2022/12/05 10:00:10;;;;;;;20.08;8.70;;;;;;;7.46;68.01;97338.91;4874998;28;20034;-74
2022/12/05 10:02:46;;;;;;;18.67;8.25;;;;;;;7.50;67.76;97337.44;4890753;28;20035;-76
2022/12/05 10:05:38;;;;;;;23.92;9.65;;;;;;;7.77;67.20;97331.91;4876301;28;20639;-75
2022/12/05 10:08:13;;;;;;;17.75;8.27;;;;;;;7.69;66.87;97327.81;4875324;28;20115;-75
2022/12/05 10:10:51;;;;;;;19.90;7.82;;;;;;;7.74;67.27;97329.75;4880398;28;20034;-75
2022/12/05 10:13:34;;;;;;;20.95;8.55;;;;;;;7.51;68.14;97331.25;4873080;29;20564;-75
2022/12/05 10:16:06;;;;;;;20.27;8.68;;;;;;;7.49;67.65;97338.47;4871854;28;20120;-75
2022/12/05 10:18:44;;;;;;;18.45;8.05;;;;;;;7.60;68.09;97329.16;4874250;28;20027;-74
2022/12/05 10:21:21;;;;;;;19.73;8.68;;;;;;;7.55;67.60;97321.25;4890054;28;20024;-74
2022/12/05 10:23:51;;;;;;;18.52;8.85;;;;;;;7.55;67.53;97314.25;4887110;28;20118;-75
2022/12/05 10:26:17;;;;;;;17.92;8.93;;;;;;;7.57;67.26;97304.44;4890510;28;20031;-74
2022/12/05 10:29:01;;;;;;;17.70;8.23;;;;;;;7.76;67.17;97306.97;4890463;28;20035;-75
2022/12/05 10:31:29;;;;;;;16.00;8.60;;;;;;;7.72;67.53;97313.63;4890813;28;20069;-75
2022/12/05 10:34:22;;;;;;;17.05;7.80;;;;;;;7.84;67.38;97315.22;4890180;28;20618;-75
2022/12/05 10:36:57;;;;;;;18.02;8.82;;;;;;;7.93;67.31;97317.50;4871965;28;20061;-75
2022/12/05 10:39:22;;;;;;;;;;;;;;;7.88;66.75;97312.97;4865377;28;20027;-75
2022/12/05 10:41:48;;;;;;;18.33;7.63;;;;;;;7.78;67.19;97320.50;4890415;28;19933;-75
2022/12/05 10:44:13;;;;;;;15.65;8.00;;;;;;;7.79;67.30;97316.91;4884629;28;20023;-75
2022/12/05 10:46:39;;;;;;;17.88;9.00;;;;;;;7.83;66.87;97315.44;4875603;28;20065;-75
2022/12/05 10:49:10;;;;;;;16.83;8.27;;;;;;;7.88;67.55;97320.75;4889404;28;20031;-75
2022/12/05 10:51:37;;;;;;;17.98;7.85;;;;;;;7.86;67.18;97320.19;4885250;28;20815;-76
2022/12/05 10:54:14;;;;;;;17.17;8.70;;;;;;;7.95;67.46;97321.47;4889545;28;20071;-75
2022/12/05 10:56:46;;;;;;;16.40;8.48;;;;;;;7.81;66.94;97322.66;4888404;28;20023;-75
2022/12/05 10:59:17;;;;;;;15.57;8.00;;;;;;;7.95;67.22;97328.44;4883117;28;20699;-74
2022/12/05 11:01:48;;;;;;;17.52;8.32;;;;;;;8.02;67.37;97329.91;4866760;29;20031;-74
2022/12/05 11:04:30;;;;;;;16.65;8.70;;;;;;;8.01;67.24;97328.31;4874036;29;20724;-75
2022/12/05 11:07:03;;;;;;;14.10;7.80;;;;;;;8.12;67.02;97321.56;4887976;28;20042;-75
2022/12/05 11:09:32;;;;;;;17.25;7.32;;;;;;;7.99;67.43;97312.22;4873943;28;20038;-75
2022/12/05 11:12:17;;;;;;;13.45;7.82;;;;;;;8.19;66.83;97311.91;4889611;28;20831;-75
2022/12/05 11:14:56;;;;;;;14.55;7.68;;;;;;;8.10;66.76;97307.25;4889564;28;20113;-76
2022/12/05 11:17:25;;;;;;;14.60;7.57;;;;;;;8.02;67.05;97316.16;4889796;28;20027;-75
2022/12/05 11:19:50;;;;;;;13.55;7.20;;;;;;;7.90;67.61;97320.53;4857629;28;20055;-75
2022/12/05 11:22:16;;;;;;;12.90;6.93;;;;;;;7.53;68.43;97318.88;4888957;28;20066;-75
2022/12/05 11:24:42;;;;;;;11.10;6.22;;;;;;;7.88;68.15;97328.53;4888837;28;20027;-75
2022/12/05 11:27:16;;;;;;;13.10;6.28;;;;;;;7.91;68.50;97333.28;4874846;28;20078;-74
2022/12/05 11:29:43;;;;;;;12.03;5.97;;;;;;;7.77;68.72;97334.50;4889471;28;20031;-75
2022/12/05 11:32:21;;;;;;;13.75;6.88;;;;;;;7.80;68.03;97327.06;4873015;29;20038;-74
2022/12/05 11:34:51;;;;;;;12.52;6.97;;;;;;;7.93;67.64;97333.84;4887943;28;20693;-75
2022/12/05 11:37:27;;;;;;;13.30;7.03;;;;;;;7.90;67.26;97329.13;4837378;29;20126;-75
2022/12/05 11:39:52;;;;;;;12.15;6.43;;;;;;;7.98;67.14;97325.41;4886199;28;20031;-75
2022/12/05 11:42:30;;;;;;;11.18;6.57;;;;;;;7.93;67.54;97320.09;4888331;28;20031;-74
2022/12/05 11:45:05;;;;;;;13.15;6.50;;;;;;;7.92;67.13;97323.69;4855470;29;20031;-75
2022/12/05 11:48:06;;;;;;;12.35;6.38;;;;;;;7.60;68.49;97322.16;4888763;28;20027;-75
2022/12/05 11:50:32;;;;;;;9.18;5.40;;;;;;;7.66;67.59;97323.88;4869766;29;20035;-75
2022/12/05 11:53:00;;;;;;;11.70;6.10;;;;;;;7.91;67.50;97325.50;4888655;28;20054;-76